sensor_id;sensor_type;location;lat;lon;timestamp;P1;durP1;ratioP1;P2;durP2;ratioP2
5032;SDS011;2535;49.888;8.942;2024-01-30T00:02:08;10.10;;;2.33;;
5032;SDS011;2535;49.888;8.942;2024-01-30T00:04:36;10.43;;;2.30;;
5032;SDS011;2535;49.888;8.942;2024-01-30T00:07:02;11.37;;;3.33;;
5032;SDS011;2535;49.888;8.942;2024-01-30T00:09:28;11.60;;;3.05;;
5032;SDS011;2535;49.888;8.942;2024-01-30T00:11:54;11.87;;;3.20;;
5032;SDS011;2535;49.888;8.942;2024-01-30T00:14:20;10.30;;;2.73;;
5032;SDS011;2535;49.888;8.942;2024-01-30T00:16:46;10.07;;;2.37;;
5032;SDS011;2535;49.888;8.942;2024-01-30T00:19:12;15.67;;;3.93;;
5032;SDS011;2535;49.888;8.942;2024-01-30T00:21:37;22.87;;;3.93;;
5032;SDS011;2535;49.888;8.942;2024-01-30T00:24:03;26.67;;;3.70;;
5032;SDS011;2535;49.888;8.942;2024-01-30T00:26:29;9.70;;;2.20;;
5032;SDS011;2535;49.888;8.942;2024-01-30T00:28:55;14.53;;;3.30;;
5032;SDS011;2535;49.888;8.942;2024-01-30T00:31:21;11.07;;;3.50;;
5032;SDS011;2535;49.888;8.942;2024-01-30T00:33:47;12.10;;;2.90;;
5032;SDS011;2535;49.888;8.942;2024-01-30T00:36:13;12.40;;;3.50;;
5032;SDS011;2535;49.888;8.942;2024-01-30T00:38:39;10.27;;;2.83;;
5032;SDS011;2535;49.888;8.942;2024-01-30T00:41:05;11.98;;;2.40;;
5032;SDS011;2535;49.888;8.942;2024-01-30T00:43:32;14.35;;;3.03;;
5032;SDS011;2535;49.888;8.942;2024-01-30T00:45:58;16.27;;;4.33;;
5032;SDS011;2535;49.888;8.942;2024-01-30T00:48:24;10.25;;;2.15;;
5032;SDS011;2535;49.888;8.942;2024-01-30T00:50:50;10.57;;;2.50;;
5032;SDS011;2535;49.888;8.942;2024-01-30T00:53:16;13.50;;;3.83;;
5032;SDS011;2535;49.888;8.942;2024-01-30T00:55:42;17.20;;;3.30;;
5032;SDS011;2535;49.888;8.942;2024-01-30T00:58:08;9.70;;;2.13;;
5032;SDS011;2535;49.888;8.942;2024-01-30T01:00:34;14.60;;;3.60;;
5032;SDS011;2535;49.888;8.942;2024-01-30T01:03:00;10.63;;;2.00;;
5032;SDS011;2535;49.888;8.942;2024-01-30T01:05:25;17.50;;;4.03;;
5032;SDS011;2535;49.888;8.942;2024-01-30T01:07:51;11.77;;;2.97;;
5032;SDS011;2535;49.888;8.942;2024-01-30T01:10:17;14.68;;;2.55;;
5032;SDS011;2535;49.888;8.942;2024-01-30T01:12:44;10.90;;;3.07;;
5032;SDS011;2535;49.888;8.942;2024-01-30T01:15:10;14.65;;;2.88;;
5032;SDS011;2535;49.888;8.942;2024-01-30T01:17:36;9.70;;;1.58;;
5032;SDS011;2535;49.888;8.942;2024-01-30T01:20:03;13.23;;;2.97;;
5032;SDS011;2535;49.888;8.942;2024-01-30T01:22:30;10.85;;;2.30;;
5032;SDS011;2535;49.888;8.942;2024-01-30T01:24:56;14.70;;;3.00;;
5032;SDS011;2535;49.888;8.942;2024-01-30T01:27:22;11.53;;;2.23;;
5032;SDS011;2535;49.888;8.942;2024-01-30T01:29:48;9.77;;;1.92;;
5032;SDS011;2535;49.888;8.942;2024-01-30T01:32:14;14.33;;;3.30;;
5032;SDS011;2535;49.888;8.942;2024-01-30T01:34:40;11.37;;;2.93;;
5032;SDS011;2535;49.888;8.942;2024-01-30T01:37:06;11.37;;;3.10;;
5032;SDS011;2535;49.888;8.942;2024-01-30T01:39:32;16.98;;;2.75;;
5032;SDS011;2535;49.888;8.942;2024-01-30T01:41:58;12.90;;;2.37;;
5032;SDS011;2535;49.888;8.942;2024-01-30T01:44:24;11.07;;;2.53;;
5032;SDS011;2535;49.888;8.942;2024-01-30T01:46:50;11.93;;;2.50;;
5032;SDS011;2535;49.888;8.942;2024-01-30T01:49:16;13.23;;;4.03;;
5032;SDS011;2535;49.888;8.942;2024-01-30T01:51:44;10.95;;;2.60;;
5032;SDS011;2535;49.888;8.942;2024-01-30T01:54:10;10.27;;;2.53;;
5032;SDS011;2535;49.888;8.942;2024-01-30T01:56:36;13.85;;;2.20;;
5032;SDS011;2535;49.888;8.942;2024-01-30T01:59:05;15.13;;;1.88;;
5032;SDS011;2535;49.888;8.942;2024-01-30T02:01:32;10.88;;;2.90;;
5032;SDS011;2535;49.888;8.942;2024-01-30T02:03:59;16.38;;;2.97;;
5032;SDS011;2535;49.888;8.942;2024-01-30T02:06:25;16.80;;;3.50;;
5032;SDS011;2535;49.888;8.942;2024-01-30T02:08:51;13.20;;;2.03;;
5032;SDS011;2535;49.888;8.942;2024-01-30T02:11:17;10.53;;;2.10;;
5032;SDS011;2535;49.888;8.942;2024-01-30T02:13:43;11.38;;;3.03;;
5032;SDS011;2535;49.888;8.942;2024-01-30T02:16:09;12.07;;;2.83;;
5032;SDS011;2535;49.888;8.942;2024-01-30T02:18:35;14.57;;;3.28;;
5032;SDS011;2535;49.888;8.942;2024-01-30T02:21:06;9.88;;;1.83;;
5032;SDS011;2535;49.888;8.942;2024-01-30T02:23:32;12.00;;;2.63;;
5032;SDS011;2535;49.888;8.942;2024-01-30T02:25:59;10.05;;;2.03;;
5032;SDS011;2535;49.888;8.942;2024-01-30T02:28:25;12.43;;;3.30;;
5032;SDS011;2535;49.888;8.942;2024-01-30T02:30:52;12.82;;;2.95;;
5032;SDS011;2535;49.888;8.942;2024-01-30T02:33:18;12.13;;;2.73;;
5032;SDS011;2535;49.888;8.942;2024-01-30T02:35:44;12.67;;;2.83;;
5032;SDS011;2535;49.888;8.942;2024-01-30T02:38:10;11.02;;;2.97;;
5032;SDS011;2535;49.888;8.942;2024-01-30T02:40:36;10.15;;;2.17;;
5032;SDS011;2535;49.888;8.942;2024-01-30T02:43:02;12.23;;;3.23;;
5032;SDS011;2535;49.888;8.942;2024-01-30T02:45:28;10.70;;;2.63;;
5032;SDS011;2535;49.888;8.942;2024-01-30T02:47:54;10.23;;;2.43;;
5032;SDS011;2535;49.888;8.942;2024-01-30T02:50:20;11.88;;;3.20;;
5032;SDS011;2535;49.888;8.942;2024-01-30T02:52:46;13.63;;;3.20;;
5032;SDS011;2535;49.888;8.942;2024-01-30T02:55:12;11.63;;;3.00;;
5032;SDS011;2535;49.888;8.942;2024-01-30T02:57:38;17.57;;;4.30;;
5032;SDS011;2535;49.888;8.942;2024-01-30T03:00:05;11.95;;;3.13;;
5032;SDS011;2535;49.888;8.942;2024-01-30T03:02:31;11.60;;;3.50;;
5032;SDS011;2535;49.888;8.942;2024-01-30T03:04:58;12.02;;;3.63;;
5032;SDS011;2535;49.888;8.942;2024-01-30T03:07:24;13.20;;;3.22;;
5032;SDS011;2535;49.888;8.942;2024-01-30T03:09:49;24.33;;;4.20;;
5032;SDS011;2535;49.888;8.942;2024-01-30T03:12:15;11.27;;;2.37;;
5032;SDS011;2535;49.888;8.942;2024-01-30T03:14:41;13.50;;;3.40;;
5032;SDS011;2535;49.888;8.942;2024-01-30T03:17:07;15.57;;;3.40;;
5032;SDS011;2535;49.888;8.942;2024-01-30T03:19:33;12.27;;;2.60;;
5032;SDS011;2535;49.888;8.942;2024-01-30T03:21:59;12.20;;;2.43;;
5032;SDS011;2535;49.888;8.942;2024-01-30T03:24:25;12.10;;;2.72;;
5032;SDS011;2535;49.888;8.942;2024-01-30T03:26:51;11.70;;;2.90;;
5032;SDS011;2535;49.888;8.942;2024-01-30T03:29:17;11.53;;;2.50;;
5032;SDS011;2535;49.888;8.942;2024-01-30T03:31:43;13.47;;;3.63;;
5032;SDS011;2535;49.888;8.942;2024-01-30T03:34:09;12.27;;;3.03;;
5032;SDS011;2535;49.888;8.942;2024-01-30T03:36:35;10.83;;;2.30;;
5032;SDS011;2535;49.888;8.942;2024-01-30T03:39:01;12.30;;;3.47;;
5032;SDS011;2535;49.888;8.942;2024-01-30T03:41:27;10.75;;;2.72;;
5032;SDS011;2535;49.888;8.942;2024-01-30T03:43:53;9.70;;;1.90;;
5032;SDS011;2535;49.888;8.942;2024-01-30T03:46:19;16.30;;;3.30;;
5032;SDS011;2535;49.888;8.942;2024-01-30T03:48:45;20.37;;;5.10;;
5032;SDS011;2535;49.888;8.942;2024-01-30T03:51:11;30.52;;;7.40;;
5032;SDS011;2535;49.888;8.942;2024-01-30T03:53:39;29.80;;;8.38;;
5032;SDS011;2535;49.888;8.942;2024-01-30T03:56:06;33.28;;;7.68;;
5032;SDS011;2535;49.888;8.942;2024-01-30T03:58:32;20.75;;;5.35;;
5032;SDS011;2535;49.888;8.942;2024-01-30T04:00:58;18.10;;;4.20;;
5032;SDS011;2535;49.888;8.942;2024-01-30T04:03:24;12.63;;;2.77;;
5032;SDS011;2535;49.888;8.942;2024-01-30T04:05:51;23.50;;;3.00;;
5032;SDS011;2535;49.888;8.942;2024-01-30T04:08:17;11.05;;;2.60;;
5032;SDS011;2535;49.888;8.942;2024-01-30T04:10:43;10.20;;;2.23;;
5032;SDS011;2535;49.888;8.942;2024-01-30T04:13:09;11.38;;;2.92;;
5032;SDS011;2535;49.888;8.942;2024-01-30T04:15:35;21.23;;;2.70;;
5032;SDS011;2535;49.888;8.942;2024-01-30T04:18:01;9.97;;;2.20;;
5032;SDS011;2535;49.888;8.942;2024-01-30T04:20:27;12.70;;;2.80;;
5032;SDS011;2535;49.888;8.942;2024-01-30T04:22:53;12.68;;;2.75;;
5032;SDS011;2535;49.888;8.942;2024-01-30T04:25:19;11.20;;;3.40;;
5032;SDS011;2535;49.888;8.942;2024-01-30T04:27:45;11.90;;;3.17;;
5032;SDS011;2535;49.888;8.942;2024-01-30T04:30:11;20.43;;;2.90;;
5032;SDS011;2535;49.888;8.942;2024-01-30T04:32:37;15.20;;;5.63;;
5032;SDS011;2535;49.888;8.942;2024-01-30T04:35:03;14.00;;;4.57;;
5032;SDS011;2535;49.888;8.942;2024-01-30T04:37:29;16.52;;;3.75;;
5032;SDS011;2535;49.888;8.942;2024-01-30T04:39:55;11.77;;;2.90;;
5032;SDS011;2535;49.888;8.942;2024-01-30T04:42:21;12.37;;;2.37;;
5032;SDS011;2535;49.888;8.942;2024-01-30T04:44:47;9.73;;;1.77;;
5032;SDS011;2535;49.888;8.942;2024-01-30T04:47:12;11.60;;;3.17;;
5032;SDS011;2535;49.888;8.942;2024-01-30T04:49:39;10.10;;;2.40;;
5032;SDS011;2535;49.888;8.942;2024-01-30T04:52:08;14.63;;;3.22;;
5032;SDS011;2535;49.888;8.942;2024-01-30T04:54:34;12.73;;;2.75;;
5032;SDS011;2535;49.888;8.942;2024-01-30T04:57:00;13.93;;;3.33;;
5032;SDS011;2535;49.888;8.942;2024-01-30T04:59:26;10.40;;;2.53;;
5032;SDS011;2535;49.888;8.942;2024-01-30T05:01:52;11.30;;;3.43;;
5032;SDS011;2535;49.888;8.942;2024-01-30T05:04:18;11.03;;;2.40;;
5032;SDS011;2535;49.888;8.942;2024-01-30T05:06:44;10.77;;;2.40;;
5032;SDS011;2535;49.888;8.942;2024-01-30T05:09:10;15.20;;;3.58;;
5032;SDS011;2535;49.888;8.942;2024-01-30T05:11:37;10.80;;;2.33;;
5032;SDS011;2535;49.888;8.942;2024-01-30T05:14:04;12.90;;;3.80;;
5032;SDS011;2535;49.888;8.942;2024-01-30T05:16:30;18.35;;;3.30;;
5032;SDS011;2535;49.888;8.942;2024-01-30T05:18:56;10.75;;;2.25;;
5032;SDS011;2535;49.888;8.942;2024-01-30T05:21:22;12.93;;;2.50;;
5032;SDS011;2535;49.888;8.942;2024-01-30T05:23:48;11.77;;;3.00;;
5032;SDS011;2535;49.888;8.942;2024-01-30T05:26:14;11.67;;;2.43;;
5032;SDS011;2535;49.888;8.942;2024-01-30T05:28:40;12.20;;;2.30;;
5032;SDS011;2535;49.888;8.942;2024-01-30T05:31:06;11.10;;;2.40;;
5032;SDS011;2535;49.888;8.942;2024-01-30T05:33:32;10.43;;;2.65;;
5032;SDS011;2535;49.888;8.942;2024-01-30T05:35:58;10.68;;;2.30;;
5032;SDS011;2535;49.888;8.942;2024-01-30T05:38:24;12.10;;;2.90;;
5032;SDS011;2535;49.888;8.942;2024-01-30T05:40:50;11.50;;;2.83;;
5032;SDS011;2535;49.888;8.942;2024-01-30T05:43:16;10.50;;;2.47;;
5032;SDS011;2535;49.888;8.942;2024-01-30T05:45:42;11.60;;;3.40;;
5032;SDS011;2535;49.888;8.942;2024-01-30T05:48:08;12.37;;;2.53;;
5032;SDS011;2535;49.888;8.942;2024-01-30T05:50:34;10.43;;;2.30;;
5032;SDS011;2535;49.888;8.942;2024-01-30T05:53:00;13.43;;;3.33;;
5032;SDS011;2535;49.888;8.942;2024-01-30T05:55:26;10.70;;;1.53;;
5032;SDS011;2535;49.888;8.942;2024-01-30T05:57:52;11.40;;;2.63;;
5032;SDS011;2535;49.888;8.942;2024-01-30T06:00:18;11.63;;;3.10;;
5032;SDS011;2535;49.888;8.942;2024-01-30T06:02:44;11.47;;;2.47;;
5032;SDS011;2535;49.888;8.942;2024-01-30T06:05:10;13.83;;;3.93;;
5032;SDS011;2535;49.888;8.942;2024-01-30T06:07:36;10.20;;;2.50;;
5032;SDS011;2535;49.888;8.942;2024-01-30T06:10:02;11.50;;;2.50;;
5032;SDS011;2535;49.888;8.942;2024-01-30T06:12:28;11.65;;;2.13;;
5032;SDS011;2535;49.888;8.942;2024-01-30T06:14:54;12.93;;;2.37;;
5032;SDS011;2535;49.888;8.942;2024-01-30T06:17:22;14.13;;;3.33;;
5032;SDS011;2535;49.888;8.942;2024-01-30T06:19:48;13.52;;;3.13;;
5032;SDS011;2535;49.888;8.942;2024-01-30T06:22:14;17.83;;;2.97;;
5032;SDS011;2535;49.888;8.942;2024-01-30T06:24:39;11.00;;;2.50;;
5032;SDS011;2535;49.888;8.942;2024-01-30T06:27:05;10.27;;;2.00;;
5032;SDS011;2535;49.888;8.942;2024-01-30T06:29:31;11.03;;;3.17;;
5032;SDS011;2535;49.888;8.942;2024-01-30T06:31:57;11.17;;;1.93;;
5032;SDS011;2535;49.888;8.942;2024-01-30T06:34:23;11.98;;;2.75;;
5032;SDS011;2535;49.888;8.942;2024-01-30T06:36:51;10.85;;;2.38;;
5032;SDS011;2535;49.888;8.942;2024-01-30T06:39:17;10.87;;;2.33;;
5032;SDS011;2535;49.888;8.942;2024-01-30T06:41:43;11.00;;;2.90;;
5032;SDS011;2535;49.888;8.942;2024-01-30T06:44:11;11.68;;;2.85;;
5032;SDS011;2535;49.888;8.942;2024-01-30T06:46:37;13.70;;;3.97;;
5032;SDS011;2535;49.888;8.942;2024-01-30T06:49:03;12.60;;;3.70;;
5032;SDS011;2535;49.888;8.942;2024-01-30T06:51:29;11.90;;;2.50;;
5032;SDS011;2535;49.888;8.942;2024-01-30T06:53:55;10.17;;;2.03;;
5032;SDS011;2535;49.888;8.942;2024-01-30T06:56:21;13.60;;;3.27;;
5032;SDS011;2535;49.888;8.942;2024-01-30T06:58:47;11.75;;;1.88;;
5032;SDS011;2535;49.888;8.942;2024-01-30T07:01:14;11.25;;;3.20;;
5032;SDS011;2535;49.888;8.942;2024-01-30T07:03:40;11.48;;;2.92;;
5032;SDS011;2535;49.888;8.942;2024-01-30T07:06:06;11.67;;;2.47;;
5032;SDS011;2535;49.888;8.942;2024-01-30T07:08:32;10.90;;;2.30;;
5032;SDS011;2535;49.888;8.942;2024-01-30T07:10:57;13.40;;;3.67;;
5032;SDS011;2535;49.888;8.942;2024-01-30T07:13:24;18.73;;;3.53;;
5032;SDS011;2535;49.888;8.942;2024-01-30T07:15:50;10.65;;;2.80;;
5032;SDS011;2535;49.888;8.942;2024-01-30T07:18:16;14.23;;;3.47;;
5032;SDS011;2535;49.888;8.942;2024-01-30T07:20:42;12.70;;;3.07;;
5032;SDS011;2535;49.888;8.942;2024-01-30T07:23:11;10.52;;;2.47;;
5032;SDS011;2535;49.888;8.942;2024-01-30T07:25:39;14.63;;;4.20;;
5032;SDS011;2535;49.888;8.942;2024-01-30T07:28:06;12.25;;;3.40;;
5032;SDS011;2535;49.888;8.942;2024-01-30T07:30:32;15.02;;;3.97;;
5032;SDS011;2535;49.888;8.942;2024-01-30T07:32:58;11.87;;;2.60;;
5032;SDS011;2535;49.888;8.942;2024-01-30T07:35:24;10.67;;;2.63;;
5032;SDS011;2535;49.888;8.942;2024-01-30T07:37:50;13.80;;;3.63;;
5032;SDS011;2535;49.888;8.942;2024-01-30T07:40:16;15.93;;;3.37;;
5032;SDS011;2535;49.888;8.942;2024-01-30T07:42:42;14.75;;;3.42;;
5032;SDS011;2535;49.888;8.942;2024-01-30T07:45:08;12.45;;;3.72;;
5032;SDS011;2535;49.888;8.942;2024-01-30T07:47:34;28.02;;;4.32;;
5032;SDS011;2535;49.888;8.942;2024-01-30T07:50:00;11.20;;;2.70;;
5032;SDS011;2535;49.888;8.942;2024-01-30T07:52:26;11.97;;;3.27;;
5032;SDS011;2535;49.888;8.942;2024-01-30T07:54:53;14.10;;;3.83;;
5032;SDS011;2535;49.888;8.942;2024-01-30T07:57:20;10.38;;;2.30;;
5032;SDS011;2535;49.888;8.942;2024-01-30T07:59:46;10.70;;;2.27;;
5032;SDS011;2535;49.888;8.942;2024-01-30T08:02:12;17.30;;;3.70;;
5032;SDS011;2535;49.888;8.942;2024-01-30T08:04:38;12.10;;;2.97;;
5032;SDS011;2535;49.888;8.942;2024-01-30T08:07:04;12.93;;;3.60;;
5032;SDS011;2535;49.888;8.942;2024-01-30T08:09:30;12.20;;;3.40;;
5032;SDS011;2535;49.888;8.942;2024-01-30T08:11:56;13.70;;;3.87;;
5032;SDS011;2535;49.888;8.942;2024-01-30T08:14:22;15.20;;;3.30;;
5032;SDS011;2535;49.888;8.942;2024-01-30T08:16:48;11.57;;;2.50;;
5032;SDS011;2535;49.888;8.942;2024-01-30T08:19:14;11.93;;;2.33;;
5032;SDS011;2535;49.888;8.942;2024-01-30T08:21:40;13.45;;;2.95;;
5032;SDS011;2535;49.888;8.942;2024-01-30T08:24:06;11.23;;;2.27;;
5032;SDS011;2535;49.888;8.942;2024-01-30T08:26:32;14.55;;;3.97;;
5032;SDS011;2535;49.888;8.942;2024-01-30T08:28:58;14.45;;;3.65;;
5032;SDS011;2535;49.888;8.942;2024-01-30T08:31:24;12.83;;;3.03;;
5032;SDS011;2535;49.888;8.942;2024-01-30T08:33:50;29.58;;;3.33;;
5032;SDS011;2535;49.888;8.942;2024-01-30T08:36:16;12.35;;;2.80;;
5032;SDS011;2535;49.888;8.942;2024-01-30T08:38:42;15.70;;;3.97;;
5032;SDS011;2535;49.888;8.942;2024-01-30T08:41:08;11.27;;;3.07;;
5032;SDS011;2535;49.888;8.942;2024-01-30T08:43:34;14.70;;;3.13;;
5032;SDS011;2535;49.888;8.942;2024-01-30T08:46:01;11.10;;;3.50;;
5032;SDS011;2535;49.888;8.942;2024-01-30T08:48:27;17.13;;;3.55;;
5032;SDS011;2535;49.888;8.942;2024-01-30T08:50:53;17.23;;;3.97;;
5032;SDS011;2535;49.888;8.942;2024-01-30T08:53:19;12.70;;;3.08;;
5032;SDS011;2535;49.888;8.942;2024-01-30T08:55:45;14.00;;;2.90;;
5032;SDS011;2535;49.888;8.942;2024-01-30T08:58:11;12.60;;;3.67;;
5032;SDS011;2535;49.888;8.942;2024-01-30T09:00:37;15.35;;;3.60;;
5032;SDS011;2535;49.888;8.942;2024-01-30T09:03:03;11.57;;;2.40;;
5032;SDS011;2535;49.888;8.942;2024-01-30T09:05:29;17.98;;;3.60;;
5032;SDS011;2535;49.888;8.942;2024-01-30T09:07:55;16.20;;;4.78;;
5032;SDS011;2535;49.888;8.942;2024-01-30T09:10:21;9.47;;;2.13;;
5032;SDS011;2535;49.888;8.942;2024-01-30T09:12:47;11.90;;;3.63;;
5032;SDS011;2535;49.888;8.942;2024-01-30T09:15:14;13.00;;;3.90;;
5032;SDS011;2535;49.888;8.942;2024-01-30T09:17:40;11.50;;;2.75;;
5032;SDS011;2535;49.888;8.942;2024-01-30T09:20:06;25.23;;;3.67;;
5032;SDS011;2535;49.888;8.942;2024-01-30T09:22:34;16.35;;;3.47;;
5032;SDS011;2535;49.888;8.942;2024-01-30T09:25:00;11.07;;;3.10;;
5032;SDS011;2535;49.888;8.942;2024-01-30T09:27:25;15.77;;;4.33;;
5032;SDS011;2535;49.888;8.942;2024-01-30T09:29:51;19.77;;;4.03;;
5032;SDS011;2535;49.888;8.942;2024-01-30T09:32:17;12.90;;;4.03;;
5032;SDS011;2535;49.888;8.942;2024-01-30T09:34:43;12.27;;;3.93;;
5032;SDS011;2535;49.888;8.942;2024-01-30T09:37:09;14.80;;;4.67;;
5032;SDS011;2535;49.888;8.942;2024-01-30T09:39:36;14.95;;;5.65;;
5032;SDS011;2535;49.888;8.942;2024-01-30T09:42:05;12.27;;;2.93;;
5032;SDS011;2535;49.888;8.942;2024-01-30T09:44:34;15.93;;;5.63;;
5032;SDS011;2535;49.888;8.942;2024-01-30T09:47:01;16.50;;;4.20;;
5032;SDS011;2535;49.888;8.942;2024-01-30T09:49:34;19.67;;;4.90;;
5032;SDS011;2535;49.888;8.942;2024-01-30T09:52:01;16.70;;;4.85;;
5032;SDS011;2535;49.888;8.942;2024-01-30T09:54:29;14.45;;;4.97;;
5032;SDS011;2535;49.888;8.942;2024-01-30T09:56:56;18.17;;;4.05;;
5032;SDS011;2535;49.888;8.942;2024-01-30T09:59:22;19.23;;;5.43;;
5032;SDS011;2535;49.888;8.942;2024-01-30T10:01:48;19.47;;;6.40;;
5032;SDS011;2535;49.888;8.942;2024-01-30T10:04:15;21.27;;;6.07;;
5032;SDS011;2535;49.888;8.942;2024-01-30T10:06:41;22.50;;;6.63;;
5032;SDS011;2535;49.888;8.942;2024-01-30T10:09:07;18.55;;;5.68;;
5032;SDS011;2535;49.888;8.942;2024-01-30T10:11:36;22.10;;;5.35;;
5032;SDS011;2535;49.888;8.942;2024-01-30T10:14:02;16.93;;;6.33;;
5032;SDS011;2535;49.888;8.942;2024-01-30T10:16:28;19.23;;;5.23;;
5032;SDS011;2535;49.888;8.942;2024-01-30T10:18:54;27.37;;;6.40;;
5032;SDS011;2535;49.888;8.942;2024-01-30T10:21:20;16.57;;;7.00;;
5032;SDS011;2535;49.888;8.942;2024-01-30T10:23:46;25.77;;;7.37;;
5032;SDS011;2535;49.888;8.942;2024-01-30T10:26:12;35.03;;;8.77;;
5032;SDS011;2535;49.888;8.942;2024-01-30T10:28:38;19.50;;;5.23;;
5032;SDS011;2535;49.888;8.942;2024-01-30T10:31:04;19.20;;;6.77;;
5032;SDS011;2535;49.888;8.942;2024-01-30T10:33:30;19.03;;;6.73;;
5032;SDS011;2535;49.888;8.942;2024-01-30T10:35:59;21.67;;;6.37;;
5032;SDS011;2535;49.888;8.942;2024-01-30T10:38:27;20.70;;;5.93;;
5032;SDS011;2535;49.888;8.942;2024-01-30T10:40:55;17.23;;;6.00;;
5032;SDS011;2535;49.888;8.942;2024-01-30T10:43:22;11.90;;;3.93;;
5032;SDS011;2535;49.888;8.942;2024-01-30T10:45:49;13.60;;;5.30;;
5032;SDS011;2535;49.888;8.942;2024-01-30T10:48:17;12.37;;;4.57;;
5032;SDS011;2535;49.888;8.942;2024-01-30T10:50:44;27.40;;;6.90;;
5032;SDS011;2535;49.888;8.942;2024-01-30T10:53:11;24.20;;;8.60;;
5032;SDS011;2535;49.888;8.942;2024-01-30T10:55:37;24.37;;;7.00;;
5032;SDS011;2535;49.888;8.942;2024-01-30T10:58:04;16.80;;;5.53;;
5032;SDS011;2535;49.888;8.942;2024-01-30T11:00:30;14.17;;;4.40;;
5032;SDS011;2535;49.888;8.942;2024-01-30T11:02:58;13.07;;;4.33;;
5032;SDS011;2535;49.888;8.942;2024-01-30T11:05:24;23.70;;;6.00;;
5032;SDS011;2535;49.888;8.942;2024-01-30T11:07:51;15.57;;;4.90;;
5032;SDS011;2535;49.888;8.942;2024-01-30T11:10:17;13.90;;;4.90;;
5032;SDS011;2535;49.888;8.942;2024-01-30T11:12:43;25.03;;;4.70;;
5032;SDS011;2535;49.888;8.942;2024-01-30T11:15:12;18.43;;;5.03;;
5032;SDS011;2535;49.888;8.942;2024-01-30T11:20:11;11.63;;;2.67;;
5032;SDS011;2535;49.888;8.942;2024-01-30T11:22:37;11.23;;;2.63;;
5032;SDS011;2535;49.888;8.942;2024-01-30T11:25:03;14.13;;;2.70;;
5032;SDS011;2535;49.888;8.942;2024-01-30T11:27:30;18.80;;;4.17;;
5032;SDS011;2535;49.888;8.942;2024-01-30T11:30:01;13.03;;;4.37;;
5032;SDS011;2535;49.888;8.942;2024-01-30T11:32:27;12.77;;;3.97;;
5032;SDS011;2535;49.888;8.942;2024-01-30T11:34:53;15.47;;;4.67;;
5032;SDS011;2535;49.888;8.942;2024-01-30T11:37:20;15.63;;;4.37;;
5032;SDS011;2535;49.888;8.942;2024-01-30T11:39:47;14.67;;;4.30;;
5032;SDS011;2535;49.888;8.942;2024-01-30T11:42:13;12.60;;;3.10;;
5032;SDS011;2535;49.888;8.942;2024-01-30T11:44:40;12.87;;;3.40;;
5032;SDS011;2535;49.888;8.942;2024-01-30T11:47:06;18.53;;;4.90;;
5032;SDS011;2535;49.888;8.942;2024-01-30T11:49:32;16.10;;;6.10;;
5032;SDS011;2535;49.888;8.942;2024-01-30T11:51:58;16.47;;;4.43;;
5032;SDS011;2535;49.888;8.942;2024-01-30T11:54:24;16.27;;;4.17;;
5032;SDS011;2535;49.888;8.942;2024-01-30T11:56:50;15.53;;;4.17;;
5032;SDS011;2535;49.888;8.942;2024-01-30T11:59:16;12.53;;;4.30;;
5032;SDS011;2535;49.888;8.942;2024-01-30T12:01:42;16.90;;;5.60;;
5032;SDS011;2535;49.888;8.942;2024-01-30T12:04:08;16.83;;;5.23;;
5032;SDS011;2535;49.888;8.942;2024-01-30T12:06:35;16.27;;;4.23;;
5032;SDS011;2535;49.888;8.942;2024-01-30T12:09:02;16.20;;;4.43;;
5032;SDS011;2535;49.888;8.942;2024-01-30T12:11:42;14.63;;;5.20;;
5032;SDS011;2535;49.888;8.942;2024-01-30T12:14:09;14.60;;;4.40;;
5032;SDS011;2535;49.888;8.942;2024-01-30T12:16:35;16.50;;;5.63;;
5032;SDS011;2535;49.888;8.942;2024-01-30T12:19:01;13.17;;;3.80;;
5032;SDS011;2535;49.888;8.942;2024-01-30T12:21:28;18.63;;;5.30;;
5032;SDS011;2535;49.888;8.942;2024-01-30T12:23:54;16.53;;;4.80;;
5032;SDS011;2535;49.888;8.942;2024-01-30T12:26:20;16.80;;;4.50;;
5032;SDS011;2535;49.888;8.942;2024-01-30T12:28:49;16.83;;;4.30;;
5032;SDS011;2535;49.888;8.942;2024-01-30T12:31:15;15.83;;;4.73;;
5032;SDS011;2535;49.888;8.942;2024-01-30T12:33:41;17.27;;;5.10;;
5032;SDS011;2535;49.888;8.942;2024-01-30T12:36:07;12.07;;;4.17;;
5032;SDS011;2535;49.888;8.942;2024-01-30T12:38:33;17.80;;;4.10;;
5032;SDS011;2535;49.888;8.942;2024-01-30T12:40:59;14.50;;;4.63;;
5032;SDS011;2535;49.888;8.942;2024-01-30T12:43:25;19.03;;;4.17;;
5032;SDS011;2535;49.888;8.942;2024-01-30T12:45:54;12.50;;;4.47;;
5032;SDS011;2535;49.888;8.942;2024-01-30T12:48:20;18.50;;;4.27;;
5032;SDS011;2535;49.888;8.942;2024-01-30T12:50:46;27.20;;;3.53;;
5032;SDS011;2535;49.888;8.942;2024-01-30T12:53:12;14.67;;;3.37;;
5032;SDS011;2535;49.888;8.942;2024-01-30T12:55:38;10.83;;;3.07;;
5032;SDS011;2535;49.888;8.942;2024-01-30T12:58:04;18.00;;;4.20;;
5032;SDS011;2535;49.888;8.942;2024-01-30T13:00:30;13.13;;;3.67;;
5032;SDS011;2535;49.888;8.942;2024-01-30T13:02:58;15.50;;;4.00;;
5032;SDS011;2535;49.888;8.942;2024-01-30T13:05:24;12.67;;;3.30;;
5032;SDS011;2535;49.888;8.942;2024-01-30T13:07:50;18.83;;;5.23;;
5032;SDS011;2535;49.888;8.942;2024-01-30T13:10:18;13.33;;;4.00;;
5032;SDS011;2535;49.888;8.942;2024-01-30T13:12:44;13.13;;;2.70;;
5032;SDS011;2535;49.888;8.942;2024-01-30T13:15:10;12.77;;;2.97;;
5032;SDS011;2535;49.888;8.942;2024-01-30T13:17:36;18.80;;;3.60;;
5032;SDS011;2535;49.888;8.942;2024-01-30T13:20:02;13.97;;;4.50;;
5032;SDS011;2535;49.888;8.942;2024-01-30T13:22:29;13.53;;;3.50;;
5032;SDS011;2535;49.888;8.942;2024-01-30T13:24:55;12.57;;;3.17;;
5032;SDS011;2535;49.888;8.942;2024-01-30T13:27:21;12.67;;;3.50;;
5032;SDS011;2535;49.888;8.942;2024-01-30T13:29:46;15.53;;;3.63;;
5032;SDS011;2535;49.888;8.942;2024-01-30T13:32:12;13.67;;;3.63;;
5032;SDS011;2535;49.888;8.942;2024-01-30T13:34:38;15.67;;;4.00;;
5032;SDS011;2535;49.888;8.942;2024-01-30T13:37:05;13.77;;;3.67;;
5032;SDS011;2535;49.888;8.942;2024-01-30T13:39:31;13.20;;;3.30;;
5032;SDS011;2535;49.888;8.942;2024-01-30T13:41:57;13.00;;;2.80;;
5032;SDS011;2535;49.888;8.942;2024-01-30T13:44:23;12.80;;;2.93;;
5032;SDS011;2535;49.888;8.942;2024-01-30T13:46:48;12.67;;;3.37;;
5032;SDS011;2535;49.888;8.942;2024-01-30T13:49:15;11.87;;;2.80;;
5032;SDS011;2535;49.888;8.942;2024-01-30T13:51:41;15.97;;;4.13;;
5032;SDS011;2535;49.888;8.942;2024-01-30T13:54:07;14.30;;;2.90;;
5032;SDS011;2535;49.888;8.942;2024-01-30T13:56:33;11.00;;;2.70;;
5032;SDS011;2535;49.888;8.942;2024-01-30T13:58:59;11.70;;;2.90;;
5032;SDS011;2535;49.888;8.942;2024-01-30T14:01:26;11.50;;;2.60;;
5032;SDS011;2535;49.888;8.942;2024-01-30T14:03:52;10.47;;;2.17;;
5032;SDS011;2535;49.888;8.942;2024-01-30T14:06:18;22.43;;;3.30;;
5032;SDS011;2535;49.888;8.942;2024-01-30T14:08:44;9.60;;;2.07;;
5032;SDS011;2535;49.888;8.942;2024-01-30T14:11:10;12.13;;;2.00;;
5032;SDS011;2535;49.888;8.942;2024-01-30T14:13:36;10.37;;;2.03;;
5032;SDS011;2535;49.888;8.942;2024-01-30T14:16:02;12.67;;;2.13;;
5032;SDS011;2535;49.888;8.942;2024-01-30T14:18:28;10.30;;;2.20;;
5032;SDS011;2535;49.888;8.942;2024-01-30T14:20:54;12.40;;;2.30;;
5032;SDS011;2535;49.888;8.942;2024-01-30T14:23:20;9.80;;;1.73;;
5032;SDS011;2535;49.888;8.942;2024-01-30T14:25:46;10.00;;;1.87;;
5032;SDS011;2535;49.888;8.942;2024-01-30T14:28:12;11.93;;;2.47;;
5032;SDS011;2535;49.888;8.942;2024-01-30T14:30:38;10.80;;;2.30;;
5032;SDS011;2535;49.888;8.942;2024-01-30T14:33:04;9.77;;;1.83;;
5032;SDS011;2535;49.888;8.942;2024-01-30T14:35:31;9.30;;;1.87;;
5032;SDS011;2535;49.888;8.942;2024-01-30T14:37:58;9.57;;;2.10;;
5032;SDS011;2535;49.888;8.942;2024-01-30T14:40:24;10.17;;;1.97;;
5032;SDS011;2535;49.888;8.942;2024-01-30T14:42:50;10.50;;;2.20;;
5032;SDS011;2535;49.888;8.942;2024-01-30T14:45:16;9.90;;;1.53;;
5032;SDS011;2535;49.888;8.942;2024-01-30T14:47:42;12.30;;;2.40;;
5032;SDS011;2535;49.888;8.942;2024-01-30T14:50:08;10.63;;;2.10;;
5032;SDS011;2535;49.888;8.942;2024-01-30T14:52:34;10.40;;;2.40;;
5032;SDS011;2535;49.888;8.942;2024-01-30T14:55:00;15.27;;;2.13;;
5032;SDS011;2535;49.888;8.942;2024-01-30T14:57:27;9.87;;;1.73;;
5032;SDS011;2535;49.888;8.942;2024-01-30T14:59:53;11.77;;;2.17;;